»·PEaware :: N251CV KPDX-KRDD

N251CV :: KPDX-KRDD

FLIGHT INFORMATION

Flight Status: Arrived
Operator: Privately registered:
United States
More flights under this callsign
Pilot: James G. (23650)
Aircraft: Unknown
(SF50)
More flights by this aircraft type
Origin: KPDX Portland Intl
United States
Destination: KRDD Redding Mun
United States
More flights between these airports :: More routes between these airports
Route: +PTDL1 EUG J126 RBL
File this flight plan on PilotEdge
Remarks:
Altitude:
(Current/Filed)
25,000ft
Speed:
(Current/Filed)
190kts
Departed: 25-Apr-19 05:36 PM
Arrived: 25-Apr-19 06:53 PM
Distance/Time
Traveled:
305nm/1:16
Distance/Time
To Go:
Arrived

Flight Plot

Page will automatically refresh every two minutes.

Flight plan parsing failed; only flown route is shown


Map Options




Map Legend


Flown Route
Filed Route
Departure Airport
Arrival Airport
Navaid (VOR, NDB)
Fix

Horizontal Profiles

Position Reports

Time Latitude Longitude Heading Altitude Ground
Speed
25-Apr-19 16:46 45.587637 -122.584071 209 33ft 0kts
25-Apr-19 16:47 45.587637 -122.584071 209 33ft 0kts
25-Apr-19 16:48 45.587636 -122.584071 209 33ft 0kts
25-Apr-19 16:49 45.587636 -122.584071 209 33ft 0kts
25-Apr-19 16:50 45.587636 -122.584071 209 33ft 0kts
25-Apr-19 16:51 45.587636 -122.584071 209 33ft 0kts
25-Apr-19 16:52 45.587636 -122.584071 209 33ft 0kts
25-Apr-19 16:53 45.587636 -122.584071 209 33ft 0kts
25-Apr-19 16:54 45.587636 -122.584071 209 33ft 0kts
25-Apr-19 16:55 45.587636 -122.584071 209 33ft 0kts
25-Apr-19 16:56 45.587636 -122.584071 209 33ft 0kts
25-Apr-19 16:57 45.587636 -122.584071 209 33ft 0kts
25-Apr-19 16:58 45.587636 -122.584071 209 33ft 0kts
25-Apr-19 16:59 45.587636 -122.584071 209 33ft 0kts
25-Apr-19 17:00 45.587636 -122.584071 209 33ft 0kts
25-Apr-19 17:01 45.587636 -122.584071 209 33ft 0kts
25-Apr-19 17:02 45.587636 -122.584071 209 33ft 0kts
25-Apr-19 17:03 45.587636 -122.584071 209 33ft 0kts
25-Apr-19 17:04 45.587636 -122.584071 209 33ft 0kts
25-Apr-19 17:05 45.587636 -122.584071 209 33ft 0kts
25-Apr-19 17:06 45.587636 -122.584071 209 33ft 0kts
25-Apr-19 17:07 45.587636 -122.584071 209 33ft 0kts
25-Apr-19 17:08 45.587636 -122.584071 209 33ft 0kts
25-Apr-19 17:09 45.587636 -122.584071 209 33ft 0kts
25-Apr-19 17:10 45.587636 -122.584071 209 33ft 0kts
25-Apr-19 17:11 45.587636 -122.584071 209 33ft 0kts
25-Apr-19 17:12 45.587636 -122.584071 209 33ft 0kts
25-Apr-19 17:13 45.587636 -122.584071 209 33ft 0kts
25-Apr-19 17:14 45.587636 -122.584071 209 33ft 0kts
25-Apr-19 17:15 45.587636 -122.584071 209 33ft 0kts
25-Apr-19 17:16 45.587636 -122.584071 209 33ft 0kts
25-Apr-19 17:17 45.587636 -122.584071 209 33ft 0kts
25-Apr-19 17:18 45.587565 -122.584131 210 33ft 0kts
25-Apr-19 17:19 45.587565 -122.584131 210 33ft 0kts
25-Apr-19 17:20 45.587565 -122.584131 210 33ft 0kts
25-Apr-19 17:21 45.587565 -122.584131 210 33ft 0kts
25-Apr-19 17:22 45.587565 -122.584131 210 33ft 0kts
25-Apr-19 17:23 45.587565 -122.584131 210 33ft 0kts
25-Apr-19 17:24 45.587319 -122.583416 209 33ft 0kts
25-Apr-19 17:25 45.587319 -122.583416 209 33ft 0kts
25-Apr-19 17:26 45.587319 -122.583416 209 33ft 0kts
25-Apr-19 17:27 45.587319 -122.583416 209 33ft 0kts
25-Apr-19 17:28 45.587302 -122.583419 179 33ft 2kts
25-Apr-19 17:29 45.586952 -122.578722 117 33ft 21kts
25-Apr-19 17:30 45.584789 -122.573160 119 33ft 24kts
25-Apr-19 17:31 45.583185 -122.569025 118 33ft 0kts
25-Apr-19 17:32 45.582783 -122.567239 47 33ft 0kts
25-Apr-19 17:33 45.582783 -122.567239 47 33ft 0kts
25-Apr-19 17:34 45.584224 -122.568463 301 33ft 23kts
25-Apr-19 17:35 45.600016 -122.609127 297 1642ft 191kts
25-Apr-19 17:36 45.621540 -122.667183 298 3783ft 162kts
25-Apr-19 17:37 45.643351 -122.725910 298 5602ft 172kts
25-Apr-19 17:38 45.667907 -122.791614 298 7487ft 215kts
25-Apr-19 17:39 45.639511 -122.829495 167 9719ft 221kts
25-Apr-19 17:40 45.596976 -122.867856 243 11956ft 208kts
25-Apr-19 17:41 45.572523 -122.942532 245 14184ft 203kts
25-Apr-19 17:42 45.526951 -122.962298 179 16407ft 213kts
25-Apr-19 17:43 45.466335 -122.964952 193 18644ft 222kts
25-Apr-19 17:44 45.404468 -122.976325 195 20839ft 224kts
25-Apr-19 17:45 45.342192 -122.988494 196 22854ft 225kts
25-Apr-19 17:46 45.280694 -123.000493 197 24855ft 220kts
25-Apr-19 17:47 45.213128 -123.013942 196 25054ft 251kts
25-Apr-19 17:48 45.145525 -123.027005 196 25057ft 254kts
25-Apr-19 17:49 45.074680 -123.040875 195 25058ft 266kts
25-Apr-19 17:50 44.999026 -123.055531 194 25060ft 279kts
25-Apr-19 17:51 44.921008 -123.070549 194 25061ft 285kts
25-Apr-19 17:52 44.841802 -123.085782 194 25064ft 288kts
25-Apr-19 17:53 44.761709 -123.101170 194 25067ft 289kts
25-Apr-19 17:54 44.681729 -123.116501 194 25075ft 290kts
25-Apr-19 17:55 44.601753 -123.131810 194 25081ft 290kts
25-Apr-19 17:56 44.521503 -123.147093 194 25081ft 290kts
25-Apr-19 17:57 44.441160 -123.162364 194 25080ft 290kts
25-Apr-19 17:58 44.361045 -123.177557 194 25080ft 290kts
25-Apr-19 17:59 44.281959 -123.192360 194 25551ft 256kts
25-Apr-19 18:00 44.217146 -123.204500 197 27509ft 223kts
25-Apr-19 18:01 44.158160 -123.215736 198 29083ft 218kts
25-Apr-19 18:02 44.094207 -123.217044 184 30327ft 229kts
25-Apr-19 18:03 44.031308 -123.205476 183 31081ft 237kts
25-Apr-19 18:04 43.961748 -123.192194 182 31079ft 265kts
25-Apr-19 18:05 43.886437 -123.177596 181 31074ft 279kts
25-Apr-19 18:06 43.809182 -123.162568 181 31177ft 258kts
25-Apr-19 18:07 43.747682 -123.150676 184 31081ft 220kts
25-Apr-19 18:08 43.681426 -123.138405 182 31083ft 257kts
25-Apr-19 18:09 43.632332 -123.128949 182 31076ft 271kts
25-Apr-19 18:10 43.555997 -123.114317 181 31062ft 282kts
25-Apr-19 18:11 43.477191 -123.099298 181 31054ft 288kts
25-Apr-19 18:12 43.397710 -123.084212 181 31053ft 290kts
25-Apr-19 18:13 43.317590 -123.069053 181 31053ft 291kts
25-Apr-19 18:14 43.253272 -123.056918 181 31053ft 291kts
25-Apr-19 18:15 43.172705 -123.041752 181 31052ft 292kts
25-Apr-19 18:16 43.092099 -123.026622 181 31052ft 292kts
25-Apr-19 18:17 43.011540 -123.011580 181 31049ft 292kts
25-Apr-19 18:18 42.930769 -122.996582 179 31035ft 294kts
25-Apr-19 18:19 42.849374 -122.981379 179 31022ft 296kts
25-Apr-19 18:20 42.767482 -122.966096 179 31008ft 297kts
25-Apr-19 18:22 42.685439 -122.950894 179 31001ft 298kts
25-Apr-19 18:23 42.600634 -122.935360 178 29940ft 326kts
25-Apr-19 18:24 42.506385 -122.917938 177 28339ft 348kts
25-Apr-19 18:25 42.412015 -122.893051 172 26347ft 343kts
25-Apr-19 18:26 42.321124 -122.866292 172 24998ft 325kts
25-Apr-19 18:27 42.234729 -122.840944 173 24999ft 313kts
25-Apr-19 18:28 42.150480 -122.816338 173 25000ft 309kts
25-Apr-19 18:29 42.066881 -122.791971 173 25003ft 307kts
25-Apr-19 18:30 41.983106 -122.767613 173 25006ft 307kts
25-Apr-19 18:31 41.899962 -122.743501 173 25008ft 306kts
25-Apr-19 18:32 41.816182 -122.719275 173 25010ft 308kts
25-Apr-19 18:33 41.730871 -122.694690 172 23154ft 310kts
25-Apr-19 18:34 41.648192 -122.670899 172 21165ft 300kts
25-Apr-19 18:35 41.567651 -122.647794 172 19167ft 291kts
25-Apr-19 18:36 41.489577 -122.625449 171 17194ft 282kts
25-Apr-19 18:37 41.412974 -122.603563 171 17102ft 282kts
25-Apr-19 18:38 41.335914 -122.581605 171 17101ft 282kts
25-Apr-19 18:39 41.259194 -122.559823 171 15758ft 277kts
25-Apr-19 18:40 41.184784 -122.538742 171 13802ft 270kts
25-Apr-19 18:40 41.124464 -122.518446 163 13062ft 269kts
25-Apr-19 18:42 41.044336 -122.481563 163 12953ft 271kts
25-Apr-19 18:43 40.977153 -122.451787 163 11293ft 227kts
25-Apr-19 18:43 40.927874 -122.430483 163 9616ft 221kts
25-Apr-19 18:44 40.870900 -122.406150 163 8007ft 212kts
25-Apr-19 18:46 40.804766 -122.378062 163 8010ft 214kts
25-Apr-19 18:46 40.757413 -122.357957 163 8000ft 215kts
25-Apr-19 18:47 40.701088 -122.334166 164 6797ft 211kts
25-Apr-19 18:48 40.651674 -122.313365 164 4892ft 181kts
25-Apr-19 18:49 40.605793 -122.297374 172 4041ft 158kts
25-Apr-19 18:50 40.561804 -122.294325 180 1527ft 153kts
25-Apr-19 18:51 40.534226 -122.294726 179 873ft 92kts
25-Apr-19 18:52 40.513221 -122.294897 178 508ft 39kts
25-Apr-19 18:53 40.502553 -122.294886 180 507ft 26kts
25-Apr-19 18:54 40.503515 -122.298024 324 507ft 20kts
25-Apr-19 18:55 40.508245 -122.299792 269 507ft 6kts

Navigation Log

Ident Type
Flight plan parsing failed, navigation log unavailable